Yakima, Washington
Current Conditions -  °F | °C
As of 5:09 AM on Tuesday 21 Oct 2014 (Local Time) from KYKM Reporting Station
Haze Haze  
Wind Chill: 38°   Ceiling: Unl
Heat Index: 38°   Visibility: 2mi
Dew Point: 37°   Wind: 0mph
Humidity: 97%   Direction: NA
Pressure: 29.87"   Gusts: NA
Location:  46.6°N, 120.5°W
Report Text: KYKM 211209Z AUTO 00000KT 2SM BR FEW002 03/03 A2987 RMK AO2 T00330028
Loading
Personal Weather Stations






























Interactive Weather Map
Tropical Storm Tracking
New forecast layout! Learn more

10-Day Weather Forecast

Advertisements
Track Severe Weather on mobile